createdAt,value
2023-04-18T00:00:11.089Z,51.14
2023-04-18T00:03:31.273Z,51.00
2023-04-18T00:06:38.683Z,52.22
2023-04-18T00:09:49.507Z,52.68
2023-04-18T00:13:13.285Z,52.77
2023-04-18T00:23:04.986Z,50.19
2023-04-18T00:31:08.028Z,52.01
2023-04-18T00:36:11.877Z,52.25
2023-04-18T00:42:05.687Z,52.85
2023-04-18T00:45:31.919Z,52.91
2023-04-18T00:48:04.008Z,54.23
2023-04-18T00:50:34.448Z,54.86
2023-04-18T00:53:05.843Z,54.95
2023-04-18T01:06:21.380Z,57.32
2023-04-18T01:11:36.945Z,57.75
2023-04-18T01:25:13.081Z,57.88
2023-04-18T01:37:54.872Z,61.80
2023-04-18T01:43:35.380Z,59.68
2023-04-18T02:07:04.614Z,64.96
2023-04-18T02:32:59.626Z,64.69
2023-04-18T03:09:43.833Z,67.89
2023-04-18T03:21:05.491Z,70.57
2023-04-18T03:24:44.796Z,69.61
2023-04-18T03:27:53.498Z,69.31
2023-04-18T03:37:46.996Z,69.43
2023-04-18T03:42:35.808Z,70.22
2023-04-18T03:44:38.082Z,70.13
2023-04-18T03:47:06.915Z,69.39
2023-04-18T03:49:42.672Z,69.84
2023-04-18T03:53:06.149Z,70.10
2023-04-18T03:55:37.832Z,69.76
2023-04-18T03:58:06.191Z,69.84
2023-04-18T04:00:34.893Z,69.72
2023-04-18T04:03:09.910Z,70.12
2023-04-18T04:05:41.054Z,70.56
2023-04-18T04:08:09.489Z,70.40
2023-04-18T04:10:38.078Z,70.90
2023-04-18T04:13:06.928Z,70.57
2023-04-18T04:15:39.741Z,70.97
2023-04-18T04:18:08.168Z,71.72
2023-04-18T04:20:39.379Z,72.16
2023-04-18T04:23:07.999Z,72.82
2023-04-18T04:25:37.424Z,73.20
2023-04-18T04:28:09.133Z,74.36
2023-04-18T04:30:39.137Z,74.12
2023-04-18T04:33:08.371Z,74.59
2023-04-18T04:38:48.193Z,75.74
2023-04-18T04:41:16.505Z,75.54
2023-04-18T04:48:07.609Z,75.45
2023-04-18T04:51:08.128Z,75.32
2023-04-18T04:53:39.680Z,75.58
2023-04-18T04:56:08.159Z,75.41
2023-04-18T04:58:39.397Z,75.93
2023-04-18T05:01:13.471Z,75.99
2023-04-18T05:07:07.872Z,75.50
2023-04-18T05:10:08.245Z,75.38
2023-04-18T05:13:11.516Z,75.09
2023-04-18T05:15:44.198Z,75.19
2023-04-18T05:18:12.719Z,74.95
2023-04-18T05:21:09.101Z,74.93
2023-04-18T05:30:06.493Z,76.84
2023-04-18T05:32:39.780Z,77.57
2023-04-18T05:35:09.299Z,77.32
2023-04-18T05:37:37.625Z,77.91
2023-04-18T05:40:08.210Z,78.23
2023-04-18T05:42:39.159Z,77.27
2023-04-18T05:45:11.174Z,78.01
2023-04-18T05:50:21.452Z,76.30
2023-04-18T05:54:09.207Z,76.48
2023-04-18T05:56:41.268Z,77.19
2023-04-18T05:59:12.435Z,77.65
2023-04-18T06:01:44.308Z,77.38
2023-04-18T06:04:12.999Z,76.86
2023-04-18T06:07:07.803Z,75.93
2023-04-18T06:09:36.346Z,75.20
2023-04-18T06:12:07.969Z,75.28
2023-04-18T06:14:42.433Z,75.79
2023-04-18T06:17:13.405Z,76.13
2023-04-18T06:19:42.217Z,77.16
2023-04-18T06:22:11.122Z,78.04
2023-04-18T06:24:39.616Z,78.76
2023-04-18T06:27:17.528Z,79.72
2023-04-18T06:30:09.961Z,79.78
2023-04-18T06:32:38.449Z,79.70
2023-04-18T06:35:09.855Z,80.13
2023-04-18T06:37:38.303Z,80.98
2023-04-18T06:40:39.238Z,81.48
2023-04-18T06:43:12.848Z,81.64
2023-04-18T06:48:23.398Z,81.74
2023-04-18T06:54:09.901Z,82.50
2023-04-18T06:56:38.873Z,82.64
2023-04-18T06:59:08.777Z,83.34
2023-04-18T07:02:09.107Z,81.92
2023-04-18T07:04:37.538Z,81.44
2023-04-18T07:07:09.006Z,81.41
2023-04-18T07:09:37.171Z,79.66
2023-04-18T07:12:06.207Z,81.31
2023-04-18T07:14:34.891Z,80.42
2023-04-18T07:17:10.707Z,79.94
2023-04-18T07:19:39.003Z,80.09
2023-04-18T07:22:08.737Z,79.39
2023-04-18T07:24:37.615Z,79.17
2023-04-18T07:27:27.956Z,78.86
2023-04-18T07:32:40.672Z,78.23
2023-04-18T07:35:12.378Z,78.72
2023-04-18T07:37:40.998Z,78.73
2023-04-18T07:40:09.857Z,78.79
2023-04-18T07:42:38.946Z,78.61
2023-04-18T07:45:08.020Z,79.31
2023-04-18T07:47:39.734Z,79.03
2023-04-18T07:52:41.415Z,79.37
2023-04-18T07:55:10.204Z,80.34
2023-04-18T07:57:39.633Z,80.27
2023-04-18T08:00:11.448Z,79.82
2023-04-18T08:02:43.032Z,80.66
2023-04-18T08:05:11.715Z,80.67
2023-04-18T08:07:40.183Z,80.45
2023-04-18T08:10:12.432Z,80.47
2023-04-18T08:12:40.812Z,80.65
2023-04-18T08:15:09.848Z,80.66
2023-04-18T08:17:43.513Z,80.63
2023-04-18T08:20:13.918Z,80.57
2023-04-18T08:22:57.776Z,80.26
2023-04-18T08:25:41.401Z,80.43
2023-04-18T08:28:09.770Z,80.53
2023-04-18T08:30:39.616Z,80.33
2023-04-18T08:33:10.715Z,80.56
2023-04-18T08:35:39.101Z,80.65
2023-04-18T08:38:10.280Z,80.45
2023-04-18T08:40:41.456Z,80.44
2023-04-18T08:43:10.447Z,80.39
2023-04-18T08:45:45.978Z,80.91
2023-04-18T08:48:16.067Z,80.79
2023-04-18T08:50:45.875Z,80.97
2023-04-18T08:53:14.386Z,81.15
2023-04-18T08:55:43.049Z,80.98
2023-04-18T08:58:13.206Z,81.21
2023-04-18T09:00:41.571Z,80.94
2023-04-18T09:03:39.896Z,80.96
2023-04-18T09:10:38.534Z,80.82
2023-04-18T09:13:07.136Z,80.78
2023-04-18T09:15:41.760Z,81.11
2023-04-18T09:18:11.930Z,81.32
2023-04-18T09:20:42.944Z,81.00
2023-04-18T09:23:39.446Z,81.02
2023-04-18T09:26:10.938Z,81.48
2023-04-18T09:28:39.226Z,81.77
2023-04-18T09:31:13.808Z,81.57
2023-04-18T09:33:53.680Z,82.02
2023-04-18T09:42:52.537Z,82.31
2023-04-18T09:45:53.461Z,82.04
2023-04-18T09:48:41.688Z,82.07
2023-04-18T09:51:12.611Z,81.92
2023-04-18T09:53:45.347Z,81.91
2023-04-18T09:56:40.308Z,82.16
2023-04-18T09:59:10.973Z,82.01
2023-04-18T10:04:10.606Z,81.95
2023-04-18T10:06:42.703Z,81.79
2023-04-18T10:09:11.939Z,81.75
2023-04-18T10:11:41.358Z,81.91
2023-04-18T10:14:14.220Z,81.49
2023-04-18T10:16:47.478Z,81.40
2023-04-18T10:19:42.900Z,81.48
2023-04-18T10:22:13.455Z,81.62
2023-04-18T10:24:54.206Z,81.67
2023-04-18T10:27:50.104Z,81.33
2023-04-18T10:30:39.924Z,82.19
2023-04-18T10:33:30.989Z,81.03
2023-04-18T10:36:38.906Z,81.65
2023-04-18T10:41:50.953Z,81.09
2023-04-18T10:44:41.062Z,81.30
2023-04-18T10:47:09.927Z,81.50
2023-04-18T10:49:41.398Z,81.59
2023-04-18T10:52:10.482Z,80.67
2023-04-18T10:54:48.208Z,81.06
2023-04-18T10:57:16.657Z,81.62
2023-04-18T10:59:49.310Z,81.51
2023-04-18T11:02:40.008Z,81.91
2023-04-18T11:05:11.644Z,81.67
2023-04-18T11:07:49.379Z,81.67
2023-04-18T11:10:20.976Z,81.83
2023-04-18T11:12:49.556Z,81.74
2023-04-18T11:15:40.763Z,80.92
2023-04-18T11:18:11.043Z,81.31
2023-04-18T11:20:41.797Z,80.96
2023-04-18T11:23:39.702Z,80.18
2023-04-18T11:26:09.804Z,80.25
2023-04-18T11:28:43.140Z,79.93
2023-04-18T11:31:11.485Z,80.01
2023-04-18T11:33:39.784Z,79.83
2023-04-18T11:36:09.257Z,79.53
2023-04-18T11:39:09.741Z,78.55
2023-04-18T11:41:42.511Z,78.89
2023-04-18T11:44:10.869Z,78.75
2023-04-18T11:46:41.188Z,77.39
2023-04-18T11:49:09.599Z,76.92
2023-04-18T11:51:42.904Z,76.37
2023-04-18T11:54:42.279Z,76.36
2023-04-18T12:02:16.205Z,77.01
2023-04-18T12:05:12.714Z,77.62
2023-04-18T12:07:42.497Z,77.92
2023-04-18T12:10:39.098Z,77.91
2023-04-18T12:13:10.529Z,78.46
2023-04-18T12:16:24.226Z,78.84
2023-04-18T12:28:16.520Z,80.07
2023-04-18T12:31:09.553Z,80.47
2023-04-18T12:34:10.422Z,80.59
2023-04-18T12:43:09.083Z,80.00
2023-04-18T12:45:40.024Z,79.81
2023-04-18T12:48:11.515Z,80.27
2023-04-18T12:50:42.457Z,80.50
2023-04-18T12:53:10.911Z,81.01
2023-04-18T12:55:48.212Z,81.46
2023-04-18T12:58:19.461Z,81.74
2023-04-18T13:01:10.153Z,82.44
2023-04-18T13:04:13.080Z,82.82
2023-04-18T13:06:55.820Z,82.65
2023-04-18T13:13:08.501Z,83.63
2023-04-18T13:15:51.924Z,84.24
2023-04-18T13:18:38.008Z,84.02
2023-04-18T13:21:13.767Z,83.33
2023-04-18T13:24:09.504Z,83.03
2023-04-18T13:27:10.948Z,83.46
2023-04-18T13:29:43.665Z,83.38
2023-04-18T13:32:12.150Z,83.19
2023-04-18T13:35:09.898Z,83.86
2023-04-18T13:37:54.184Z,84.03
2023-04-18T13:40:45.628Z,84.45
2023-04-18T13:43:16.303Z,84.59
2023-04-18T13:45:57.888Z,84.88
2023-04-18T13:51:12.411Z,84.97
2023-04-18T13:57:37.998Z,85.46
2023-04-18T14:00:10.576Z,85.61
2023-04-18T14:02:39.552Z,85.43
2023-04-18T14:05:10.408Z,85.50
2023-04-18T14:07:39.289Z,85.77
2023-04-18T14:10:08.288Z,86.04
2023-04-18T14:13:10.571Z,85.81
2023-04-18T14:16:10.269Z,86.34
2023-04-18T14:18:39.757Z,86.23
2023-04-18T14:21:11.127Z,86.20
2023-04-18T14:23:39.652Z,86.13
2023-04-18T14:28:35.504Z,85.33
2023-04-18T14:31:06.474Z,85.32
2023-04-18T14:33:36.458Z,85.19
2023-04-18T14:36:04.910Z,85.10
2023-04-18T14:38:33.726Z,84.90
2023-04-18T14:41:08.530Z,84.64
2023-04-18T14:43:37.520Z,84.96
2023-04-18T14:46:13.094Z,84.87
2023-04-18T14:48:41.955Z,84.90
2023-04-18T14:51:10.475Z,84.88
2023-04-18T14:53:38.861Z,84.52
2023-04-18T14:56:10.553Z,84.65
2023-04-18T14:58:38.830Z,83.57
2023-04-18T15:01:08.681Z,83.28
2023-04-18T15:03:40.439Z,82.83
2023-04-18T15:06:09.239Z,81.88
2023-04-18T15:08:41.526Z,81.02
2023-04-18T15:11:10.551Z,80.19
2023-04-18T15:13:38.916Z,79.96
2023-04-18T15:16:07.848Z,79.62
2023-04-18T15:18:36.230Z,78.95
2023-04-18T15:21:04.608Z,78.03
2023-04-18T15:23:33.014Z,77.26
2023-04-18T15:26:01.468Z,76.47
2023-04-18T15:28:29.864Z,75.57
2023-04-18T15:30:58.276Z,74.09
2023-04-18T15:33:26.994Z,73.57
2023-04-18T15:35:57.038Z,72.37
2023-04-18T15:38:25.310Z,71.84
2023-04-18T15:40:53.694Z,71.39
2023-04-18T15:43:21.976Z,71.39
2023-04-18T15:45:50.406Z,70.60
2023-04-18T15:48:18.850Z,69.23
2023-04-18T15:50:52.139Z,67.42
2023-04-18T15:53:21.363Z,66.26
2023-04-18T15:55:49.913Z,65.70
2023-04-18T15:58:18.227Z,66.50
2023-04-18T16:00:47.199Z,64.94
2023-04-18T16:03:15.675Z,64.08
2023-04-18T16:05:44.188Z,62.45
2023-04-18T16:08:12.942Z,61.63
2023-04-18T16:10:41.277Z,60.33
2023-04-18T16:13:09.645Z,60.71
2023-04-18T16:15:42.781Z,61.15
2023-04-18T16:18:11.393Z,61.36
2023-04-18T16:20:40.153Z,59.00
2023-04-18T16:23:08.449Z,60.63
2023-04-18T16:25:36.964Z,58.98
2023-04-18T16:28:05.428Z,59.19
2023-04-18T16:30:33.772Z,57.76
2023-04-18T16:33:02.328Z,57.94
2023-04-18T16:35:30.863Z,57.58
2023-04-18T16:37:59.131Z,55.66
2023-04-18T16:40:31.324Z,53.92
2023-04-18T16:43:00.252Z,54.49
2023-04-18T16:45:28.851Z,54.94
2023-04-18T16:47:58.681Z,54.46
2023-04-18T16:50:27.663Z,53.88
2023-04-18T16:52:55.933Z,53.62
2023-04-18T16:55:24.789Z,53.03
2023-04-18T16:57:53.043Z,52.19
2023-04-18T17:00:22.046Z,51.70
2023-04-18T17:02:50.450Z,51.51
2023-04-18T17:05:19.545Z,51.22
2023-04-18T17:07:50.617Z,50.88
2023-04-18T17:10:19.782Z,49.89
2023-04-18T17:12:50.064Z,49.42
2023-04-18T17:15:23.172Z,48.80
2023-04-18T17:17:51.696Z,48.92
2023-04-18T17:20:20.606Z,47.93
2023-04-18T17:22:49.089Z,46.92
2023-04-18T17:25:17.558Z,45.82
2023-04-18T17:27:45.887Z,45.75
2023-04-18T17:30:14.692Z,45.11
2023-04-18T17:32:46.679Z,43.82
2023-04-18T17:35:15.637Z,43.12
2023-04-18T17:37:44.292Z,43.51
2023-04-18T17:40:13.987Z,43.46
2023-04-18T17:42:42.475Z,43.80
2023-04-18T17:45:11.746Z,42.58
2023-04-18T17:47:41.625Z,43.16
2023-04-18T17:50:10.757Z,42.21
2023-04-18T17:52:39.119Z,42.83
2023-04-18T17:55:07.901Z,41.61
2023-04-18T17:57:36.832Z,42.19
2023-04-18T18:00:11.079Z,39.57
2023-04-18T18:02:39.574Z,41.07
2023-04-18T18:05:08.672Z,40.31
2023-04-18T18:07:38.301Z,41.74
2023-04-18T18:10:07.867Z,41.18
2023-04-18T18:12:37.404Z,40.57
2023-04-18T18:15:06.372Z,39.43
2023-04-18T18:17:34.762Z,39.22
2023-04-18T18:20:03.124Z,39.63
2023-04-18T18:22:31.958Z,39.97
2023-04-18T18:25:00.253Z,39.16
2023-04-18T18:27:28.466Z,40.00
2023-04-18T18:29:56.764Z,37.12
2023-04-18T18:32:25.667Z,37.69
2023-04-18T18:34:54.093Z,38.31
2023-04-18T18:37:24.150Z,38.54
2023-04-18T18:39:53.143Z,39.48
2023-04-18T18:42:21.677Z,38.77
2023-04-18T18:44:50.486Z,38.36
2023-04-18T18:47:21.997Z,37.85
2023-04-18T18:49:50.367Z,37.26
2023-04-18T18:52:19.558Z,36.71
2023-04-18T18:54:47.958Z,36.02
2023-04-18T18:57:16.294Z,35.71
2023-04-18T18:59:44.532Z,36.19
2023-04-18T19:02:12.899Z,36.32
2023-04-18T19:04:41.374Z,35.56
2023-04-18T19:07:09.711Z,34.68
2023-04-18T19:09:38.146Z,36.28
2023-04-18T19:12:07.717Z,34.61
2023-04-18T19:14:36.401Z,33.79
2023-04-18T19:17:05.783Z,34.67
2023-04-18T19:19:34.548Z,34.97
2023-04-18T19:22:02.811Z,35.81
2023-04-18T19:24:34.179Z,34.14
2023-04-18T19:27:03.709Z,33.70
2023-04-18T19:29:32.957Z,34.06
2023-04-18T19:32:01.732Z,37.33
2023-04-18T19:34:30.066Z,37.05
2023-04-18T19:36:58.824Z,36.56
2023-04-18T19:39:27.172Z,35.74
2023-04-18T19:41:55.400Z,36.28
2023-04-18T19:44:23.937Z,37.17
2023-04-18T19:46:52.442Z,36.23
2023-04-18T19:49:20.855Z,35.76
2023-04-18T19:51:49.923Z,36.20
2023-04-18T19:54:20.320Z,36.18
2023-04-18T19:56:50.168Z,35.31
2023-04-18T19:59:18.644Z,36.67
2023-04-18T20:01:47.064Z,35.99
2023-04-18T20:04:15.441Z,36.29
2023-04-18T20:06:43.899Z,36.46
2023-04-18T20:09:17.441Z,36.80
2023-04-18T20:11:47.317Z,37.61
2023-04-18T20:14:15.605Z,37.33
2023-04-18T20:16:46.658Z,37.16
2023-04-18T20:19:15.424Z,36.99
2023-04-18T20:21:44.667Z,37.03
2023-04-18T20:24:14.473Z,36.75
2023-04-18T20:26:42.826Z,36.19
2023-04-18T20:29:11.187Z,36.72
2023-04-18T20:31:43.022Z,37.35
2023-04-18T20:34:11.455Z,37.96
2023-04-18T20:36:43.247Z,37.66
2023-04-18T20:39:13.672Z,37.67
2023-04-18T20:41:48.121Z,37.49
2023-04-18T20:44:17.214Z,37.05
2023-04-18T21:04:53.463Z,35.30
2023-04-18T21:08:07.138Z,34.87
2023-04-18T21:10:38.739Z,35.85
2023-04-18T21:16:00.272Z,36.08
2023-04-18T21:19:06.494Z,35.91
2023-04-18T21:22:05.733Z,34.70
2023-04-18T21:25:07.183Z,35.72
2023-04-18T21:27:35.317Z,35.36
2023-04-18T21:30:07.555Z,34.99
2023-04-18T21:33:07.032Z,33.93
2023-04-18T21:39:04.254Z,33.41
2023-04-18T21:41:35.660Z,34.32
2023-04-18T21:44:07.520Z,34.58
2023-04-18T21:46:36.123Z,34.88
2023-04-18T21:49:08.872Z,34.57
2023-04-18T21:51:37.905Z,34.32
2023-04-18T21:54:08.619Z,33.81
2023-04-18T21:59:18.787Z,33.72
2023-04-18T22:07:34.178Z,31.67
2023-04-18T22:10:06.895Z,32.26
2023-04-18T22:12:38.635Z,31.90
2023-04-18T22:15:34.970Z,31.82
2023-04-18T22:25:35.400Z,32.13
2023-04-18T22:37:39.877Z,30.75
2023-04-18T22:40:41.515Z,31.65
2023-04-18T22:44:33.422Z,32.39
2023-04-18T22:52:40.227Z,31.68
2023-04-18T23:09:09.953Z,33.66
2023-04-18T23:23:11.194Z,34.31
2023-04-18T23:29:33.832Z,34.61
2023-04-18T23:32:07.618Z,34.44
2023-04-18T23:34:41.414Z,34.59
2023-04-18T23:37:13.266Z,34.66
2023-04-18T23:43:03.376Z,33.95
2023-04-18T23:46:19.054Z,34.25
2023-04-18T23:49:08.678Z,34.07
2023-04-18T23:51:51.433Z,33.98
2023-04-18T23:54:37.306Z,34.37
2023-04-18T23:57:08.478Z,34.04
2023-04-18T23:59:39.969Z,34.67
